Time;durP1;ratioP1;P1;durP2;ratioP2;P2;SDS_P1;SDS_P2;PMS_P1;PMS_P2;Temp;Humidity;BMP_temperature;BMP_pressure;BME280_temperature;BME280_humidity;BME280_pressure;Samples;Min_cycle;Max_cycle;Signal;HPM_P1;HPM_P2
2022/07/20 00:03:22;;;;;;;;;;;;;;;;;;10505357;28;19928;-68
2022/07/20 00:13:46;;;;;;;;;;;;;;;;;;10504950;28;19925;-68
2022/07/20 00:18:48;;;;;;;;;;;;;;;;;;10504762;28;19925;-68
2022/07/20 00:23:50;;;;;;;;;;;;;;;;;;10486930;28;19971;-68
2022/07/20 00:28:52;;;;;;;;;;;;;;;;;;10504243;28;19925;-68
2022/07/20 00:33:55;;;;;;;;;;;;;;;;;;10504213;28;19932;-68
2022/07/20 00:38:57;;;;;;;;;;;;;;;;;;10503399;28;19924;-68
2022/07/20 00:43:59;;;;;;;;;;;;;;;;;;10503562;28;19929;-68
2022/07/20 00:49:02;;;;;;;;;;;;;;;;;;10502969;28;19928;-68
2022/07/20 00:54:04;;;;;;;;;;;;;;;;;;10502559;28;19928;-68
2022/07/20 00:59:06;;;;;;;;;;;;;;;;;;10502630;28;19924;-69
2022/07/20 01:04:08;;;;;;;;;;;;;;;;;;10503084;28;19925;-69
2022/07/20 01:09:10;;;;;;;;;;;;;;;;;;10502827;28;19925;-68
2022/07/20 01:14:12;;;;;;;;;;;;;;;;;;10502018;28;20485;-68
2022/07/20 01:19:14;;;;;;;;;;;;;;;;;;10502453;28;19932;-68
2022/07/20 01:24:16;;;;;;;;;;;;;;;;;;10502290;28;19924;-68
2022/07/20 01:29:18;;;;;;;;;;;;;;;;;;10502037;28;19925;-68
2022/07/20 01:34:20;;;;;;;;;;;;;;;;;;10501265;28;20363;-68
2022/07/20 01:39:22;;;;;;;;;;;;;;;;;;10501599;28;19928;-68
2022/07/20 01:44:24;;;;;;;;;;;;;;;;;;10501084;28;19930;-67
2022/07/20 01:49:27;;;;;;;;;;;;;;;;;;10500493;28;20287;-68
2022/07/20 01:54:29;;;;;;;;;;;;;;;;;;10501029;28;19939;-68
2022/07/20 01:59:31;;;;;;;;;;;;;;;;;;10483118;28;19929;-68
2022/07/20 02:04:34;;;;;;;;;;;;;;;;;;10499989;28;19924;-68
2022/07/20 02:09:36;;;;;;;;;;;;;;;;;;10500209;28;19930;-68
2022/07/20 02:14:38;;;;;;;;;;;;;;;;;;10500196;28;19925;-68
2022/07/20 02:19:40;;;;;;;;;;;;;;;;;;10499404;28;19950;-68
2022/07/20 02:24:45;;;;;;;;;;;;;;;;;;10499587;28;19924;-68
2022/07/20 02:29:47;;;;;;;;;;;;;;;;;;10499080;28;19925;-68
2022/07/20 02:34:50;;;;;;;;;;;;;;;;;;10499538;28;19924;-68
2022/07/20 02:39:52;;;;;;;;;;;;;;;;;;10498730;28;20299;-68
2022/07/20 02:44:54;;;;;;;;;;;;;;;;;;10498855;28;19932;-68
2022/07/20 02:49:56;;;;;;;;;;;;;;;;;;10499092;28;19932;-68
2022/07/20 02:54:58;;;;;;;;;;;;;;;;;;10499017;28;19925;-68
2022/07/20 03:00:00;;;;;;;;;;;;;;;;;;10498320;28;20295;-68
2022/07/20 03:05:02;;;;;;;;;;;;;;;;;;10498162;28;20406;-68
2022/07/20 03:10:04;;;;;;;;;;;;;;;;;;10498645;28;19925;-68
2022/07/20 03:15:06;;;;;;;;;;;;;;;;;;10498665;28;19931;-67
2022/07/20 03:20:08;;;;;;;;;;;;;;;;;;10503846;28;19925;-67
2022/07/20 03:25:10;;;;;;;;;;;;;;;;;;10489233;28;19924;-67
2022/07/20 03:30:12;;;;;;;;;;;;;;;;;;10506120;28;19928;-67
2022/07/20 03:35:14;;;;;;;;;;;;;;;;;;10506015;28;19924;-67
2022/07/20 03:40:16;;;;;;;;;;;;;;;;;;10506394;28;19928;-67
2022/07/20 03:45:19;;;;;;;;;;;;;;;;;;10505641;28;19932;-67
2022/07/20 03:50:28;;;;;;;;;;;;;;;;;;10505935;28;19924;-67
2022/07/20 03:55:30;;;;;;;;;;;;;;;;;;10505723;28;19931;-67
2022/07/20 04:00:32;;;;;;;;;;;;;;;;;;10504936;28;19935;-67
2022/07/20 04:05:34;;;;;;;;;;;;;;;;;;10505331;28;19932;-67
2022/07/20 04:10:36;;;;;;;;;;;;;;;;;;10505103;28;19932;-66
2022/07/20 04:15:38;;;;;;;;;;;;;;;;;;10504339;28;19930;-66
2022/07/20 04:20:43;;;;;;;;;;;;;;;;;;10504785;28;19924;-66
2022/07/20 04:25:45;;;;;;;;;;;;;;;;;;10503953;28;19949;-66
2022/07/20 04:30:47;;;;;;;;;;;;;;;;;;10504006;28;19924;-65
2022/07/20 04:35:49;;;;;;;;;;;;;;;;;;10504165;28;19932;-67
2022/07/20 04:40:51;;;;;;;;;;;;;;;;;;10504218;28;19932;-66
2022/07/20 04:45:54;;;;;;;;;;;;;;;;;;10503225;28;19924;-65
2022/07/20 04:50:58;;;;;;;;;;;;;;;;;;10502904;28;20425;-66
2022/07/20 04:56:00;;;;;;;;;;;;;;;;;;10503480;28;19924;-65
2022/07/20 05:01:03;;;;;;;;;;;;;;;;;;10502630;28;19929;-63
2022/07/20 05:06:05;;;;;;;;;;;;;;;;;;10503046;28;19931;-65
2022/07/20 05:11:07;;;;;;;;;;;;;;;;;;10502873;28;19924;-65
2022/07/20 05:16:12;;;;;;;;;;;;;;;;;;10502891;28;20011;-66
2022/07/20 05:21:14;;;;;;;;;;;;;;;;;;10502423;28;19970;-65
2022/07/20 05:26:16;;;;;;;;;;;;;;;;;;10502454;28;19924;-65
2022/07/20 05:31:18;;;;;;;;;;;;;;;;;;10501959;28;19924;-66
2022/07/20 05:36:20;;;;;;;;;;;;;;;;;;10484085;28;20004;-65
2022/07/20 05:41:22;;;;;;;;;;;;;;;;;;10501569;28;19929;-65
2022/07/20 05:46:24;;;;;;;;;;;;;;;;;;10483012;28;19924;-66
2022/07/20 05:51:27;;;;;;;;;;;;;;;;;;10482728;28;20322;-66
2022/07/20 05:56:33;;;;;;;;;;;;;;;;;;10500978;28;19975;-66
2022/07/20 06:01:35;;;;;;;;;;;;;;;;;;10500092;28;19924;-66
2022/07/20 06:06:37;;;;;;;;;;;;;;;;;;10499913;28;20338;-66
2022/07/20 06:11:39;;;;;;;;;;;;;;;;;;10500327;28;19924;-66
2022/07/20 06:16:41;;;;;;;;;;;;;;;;;;10499564;28;20287;-66
2022/07/20 06:21:43;;;;;;;;;;;;;;;;;;10499990;28;19933;-64
2022/07/20 06:26:45;;;;;;;;;;;;;;;;;;10499833;28;19924;-65
2022/07/20 06:31:47;;;;;;;;;;;;;;;;;;10499593;28;19964;-66
2022/07/20 06:37:09;;;;;;;;;;;;;;;;;;10498748;28;19931;-65
2022/07/20 06:42:11;;;;;;;;;;;;;;;;;;10499357;28;19930;-66
2022/07/20 06:47:14;;;;;;;;;;;;;;;;;;10498471;28;20279;-64
2022/07/20 06:52:16;;;;;;;;;;;;;;;;;;10498512;28;19924;-64
2022/07/20 06:57:18;;;;;;;;;;;;;;;;;;10499051;28;19931;-65
2022/07/20 07:02:20;;;;;;;;;;;;;;;;;;10498972;28;19925;-65
2022/07/20 07:07:22;;;;;;;;;;;;;;;;;;10498793;28;20139;-66
2022/07/20 07:12:24;;;;;;;;;;;;;;;;;;10498028;28;20287;-65
2022/07/20 07:17:27;;;;;;;;;;;;;;;;;;10497905;28;20379;-66
2022/07/20 07:22:30;;;;;;;;;;;;;;;;;;10498452;28;19932;-67
2022/07/20 07:27:32;;;;;;;;;;;;;;;;;;10498384;28;19925;-66
2022/07/20 07:32:34;;;;;;;;;;;;;;;;;;10497592;28;19925;-65
2022/07/20 07:37:36;;;;;;;;;;;;;;;;;;10497559;28;20283;-66
2022/07/20 07:42:38;;;;;;;;;;;;;;;;;;10498640;28;19932;-66
2022/07/20 07:47:42;;;;;;;;;;;;;;;;;;10497195;28;20397;-66
2022/07/20 07:52:44;;;;;;;;;;;;;;;;;;10497809;28;19939;-66
2022/07/20 07:57:57;;;;;;;;;;;;;;;;;;10481020;28;19925;-65
2022/07/20 08:03:04;;;;;;;;;;;;;;;;;;10498227;28;19931;-67
2022/07/20 08:08:06;;;;;;;;;;;;;;;;;;10505257;28;19932;-66
2022/07/20 08:13:11;;;;;;;;;;;;;;;;;;10504953;28;19931;-67
2022/07/20 08:18:13;;;;;;;;;;;;;;;;;;10504893;28;19929;-67
2022/07/20 08:23:15;;;;;;;;;;;;;;;;;;10504062;28;19924;-67
2022/07/20 08:28:17;;;;;;;;;;;;;;;;;;10503813;28;20368;-67
2022/07/20 08:33:19;;;;;;;;;;;;;;;;;;10504195;28;19932;-65
2022/07/20 08:38:21;;;;;;;;;;;;;;;;;;10485784;28;20287;-66
2022/07/20 08:43:23;;;;;;;;;;;;;;;;;;10503198;28;19943;-66
2022/07/20 08:48:25;;;;;;;;;;;;;;;;;;10503188;28;20020;-67
2022/07/20 08:53:27;;;;;;;;;;;;;;;;;;10502937;28;19932;-67
2022/07/20 08:58:29;;;;;;;;;;;;;;;;;;10503419;28;19999;-67
2022/07/20 09:03:31;;;;;;;;;;;;;;;;;;10503171;28;19939;-67
2022/07/20 09:08:34;;;;;;;;;;;;;;;;;;10502967;28;19925;-67
2022/07/20 09:13:36;;;;;;;;;;;;;;;;;;10502142;28;20786;-67
2022/07/20 09:18:38;;;;;;;;;;;;;;;;;;10501247;28;19924;-66
2022/07/20 09:23:40;;;;;;;;;;;;;;;;;;10501751;28;20371;-67
2022/07/20 09:28:42;;;;;;;;;;;;;;;;;;10484039;28;19924;-67
2022/07/20 09:33:44;;;;;;;;;;;;;;;;;;10501176;28;20367;-67
2022/07/20 09:38:46;;;;;;;;;;;;;;;;;;10483933;28;19925;-67
2022/07/20 09:43:49;;;;;;;;;;;;;;;;;;10500947;28;20340;-67
2022/07/20 09:48:51;;;;;;;;;;;;;;;;;;10500733;28;20279;-65
2022/07/20 09:53:53;;;;;;;;;;;;;;;;;;10501043;28;20011;-66
2022/07/20 09:58:55;;;;;;;;;;;;;;;;;;10525285;22;19928;-61
2022/07/20 10:03:58;;;;;;;;;;;;;;;;;;10542724;28;19931;-60
2022/07/20 10:09:00;;;;;;;;;;;;;;;;;;10542513;28;19931;-60
2022/07/20 10:14:02;;;;;;;;;;;;;;;;;;10542145;28;19932;-60
2022/07/20 10:19:04;;;;;;;;;;;;;;;;;;10542136;28;19924;-60
2022/07/20 10:24:06;;;;;;;;;;;;;;;;;;10541937;28;19924;-61
2022/07/20 10:29:09;;;;;;;;;;;;;;;;;;10541131;28;20001;-60
2022/07/20 10:34:11;;;;;;;;;;;;;;;;;;10540852;28;19924;-60
2022/07/20 10:39:13;;;;;;;;;;;;;;;;;;10541330;28;19925;-60
2022/07/20 10:44:15;;;;;;;;;;;;;;;;;;10541197;28;19928;-60
2022/07/20 10:49:17;;;;;;;;;;;;;;;;;;10540396;28;20370;-60
2022/07/20 10:54:20;;;;;;;;;;;;;;;;;;10540796;28;19931;-60
2022/07/20 10:59:22;;;;;;;;;;;;;;;;;;10540423;28;19931;-60
2022/07/20 11:04:24;;;;;;;;;;;;;;;;;;10540549;28;19924;-61
2022/07/20 11:09:26;;;;;;;;;;;;;;;;;;10540574;28;19934;-61
2022/07/20 11:14:28;;;;;;;;;;;;;;;;;;10539542;28;19924;-59
2022/07/20 11:19:30;;;;;;;;;;;;;;;;;;10539727;28;19924;-60
2022/07/20 11:24:32;;;;;;;;;;;;;;;;;;10539644;28;20385;-60
2022/07/20 11:29:36;;;;;;;;;;;;;;;;;;10540159;28;19925;-60
2022/07/20 11:34:38;;;;;;;;;;;;;;;;;;10540103;28;19931;-60
2022/07/20 11:39:40;;;;;;;;;;;;;;;;;;10543327;28;19924;-60
2022/07/20 11:44:42;;;;;;;;;;;;;;;;;;10548340;28;19928;-60
2022/07/20 11:49:44;;;;;;;;;;;;;;;;;;10547950;28;19955;-60
2022/07/20 11:54:47;;;;;;;;;;;;;;;;;;10547241;28;20286;-60
2022/07/20 11:59:49;;;;;;;;;;;;;;;;;;10546872;28;19924;-60
2022/07/20 12:04:51;;;;;;;;;;;;;;;;;;10547518;28;19930;-60
2022/07/20 12:09:53;;;;;;;;;;;;;;;;;;10546747;28;20031;-61
2022/07/20 12:14:55;;;;;;;;;;;;;;;;;;10547474;28;19939;-61
2022/07/20 12:19:58;;;;;;;;;;;;;;;;;;10546765;28;19924;-61
2022/07/20 12:25:00;;;;;;;;;;;;;;;;;;10547281;28;19931;-61
2022/07/20 12:30:02;;;;;;;;;;;;;;;;;;10546459;28;20441;-60
2022/07/20 12:35:05;;;;;;;;;;;;;;;;;;10545595;28;19924;-61
2022/07/20 12:40:07;;;;;;;;;;;;;;;;;;10528065;28;19924;-61
2022/07/20 12:45:09;;;;;;;;;;;;;;;;;;10545855;28;20011;-60
2022/07/20 12:50:11;;;;;;;;;;;;;;;;;;10543862;28;20417;-61
2022/07/20 12:55:14;;;;;;;;;;;;;;;;;;10545345;28;19931;-60
2022/07/20 13:00:16;;;;;;;;;;;;;;;;;;10544598;28;19927;-61
2022/07/20 13:05:18;;;;;;;;;;;;;;;;;;10544484;28;20282;-61
2022/07/20 13:10:20;;;;;;;;;;;;;;;;;;10544760;28;19931;-61
2022/07/20 13:15:22;;;;;;;;;;;;;;;;;;10543879;28;19924;-60
2022/07/20 13:20:41;;;;;;;;;;;;;;;;;;10544497;28;19931;-61
2022/07/20 13:25:44;;;;;;;;;;;;;;;;;;10535867;28;19924;-61
2022/07/20 13:30:46;;;;;;;;;;;;;;;;;;10544067;28;20027;-60
2022/07/20 13:35:48;;;;;;;;;;;;;;;;;;10543323;28;20362;-61
2022/07/20 13:40:52;;;;;;;;;;;;;;;;;;10525137;28;20282;-61
2022/07/20 13:45:54;;;;;;;;;;;;;;;;;;10543575;28;19931;-61
2022/07/20 13:50:56;;;;;;;;;;;;;;;;;;10543459;28;19928;-60
2022/07/20 13:56:18;;;;;;;;;;;;;;;;;;10543440;28;19924;-61
2022/07/20 14:01:20;;;;;;;;;;;;;;;;;;10541783;28;19924;-61
2022/07/20 14:06:23;;;;;;;;;;;;;;;;;;10542073;28;20292;-61
2022/07/20 14:11:25;;;;;;;;;;;;;;;;;;10542463;28;19924;-61
2022/07/20 14:16:27;;;;;;;;;;;;;;;;;;10542272;28;19930;-60
2022/07/20 14:21:29;;;;;;;;;;;;;;;;;;10541503;28;20504;-61
2022/07/20 14:26:31;;;;;;;;;;;;;;;;;;10541804;28;19924;-61
2022/07/20 14:31:33;;;;;;;;;;;;;;;;;;10541858;28;19931;-60
2022/07/20 14:36:35;;;;;;;;;;;;;;;;;;10541767;28;19968;-60
2022/07/20 14:41:38;;;;;;;;;;;;;;;;;;10540638;28;19924;-60
2022/07/20 14:46:40;;;;;;;;;;;;;;;;;;10541217;28;19924;-60
2022/07/20 14:51:42;;;;;;;;;;;;;;;;;;10540886;28;19924;-61
2022/07/20 14:56:44;;;;;;;;;;;;;;;;;;10540222;28;20304;-60
2022/07/20 15:01:46;;;;;;;;;;;;;;;;;;10540230;28;19935;-61
2022/07/20 15:06:48;;;;;;;;;;;;;;;;;;10540974;28;19924;-60
2022/07/20 15:11:50;;;;;;;;;;;;;;;;;;10539811;28;19924;-60
2022/07/20 15:16:52;;;;;;;;;;;;;;;;;;10539778;28;19932;-60
2022/07/20 15:21:54;;;;;;;;;;;;;;;;;;10540363;28;19924;-60
2022/07/20 15:26:57;;;;;;;;;;;;;;;;;;10540192;28;19928;-60
2022/07/20 15:31:59;;;;;;;;;;;;;;;;;;10540072;28;19957;-60
2022/07/20 15:37:18;;;;;;;;;;;;;;;;;;10540155;28;19930;-60
2022/07/20 15:42:20;;;;;;;;;;;;;;;;;;10539992;28;19924;-60
2022/07/20 15:47:23;;;;;;;;;;;;;;;;;;10539269;28;19947;-60
2022/07/20 15:52:25;;;;;;;;;;;;;;;;;;10539766;28;19924;-60
2022/07/20 15:57:28;;;;;;;;;;;;;;;;;;10538977;28;19967;-61
2022/07/20 16:02:30;;;;;;;;;;;;;;;;;;10538883;28;19924;-60
2022/07/20 16:07:32;;;;;;;;;;;;;;;;;;10539437;28;19931;-61
2022/07/20 16:12:34;;;;;;;;;;;;;;;;;;10538678;28;19930;-61
2022/07/20 16:17:38;;;;;;;;;;;;;;;;;;10538651;28;20375;-61
2022/07/20 16:22:40;;;;;;;;;;;;;;;;;;10538837;28;19978;-60
2022/07/20 16:27:42;;;;;;;;;;;;;;;;;;10544454;28;20397;-61
2022/07/20 16:32:44;;;;;;;;;;;;;;;;;;10546379;28;19931;-61
2022/07/20 16:37:46;;;;;;;;;;;;;;;;;;10545608;28;19928;-61
2022/07/20 16:42:48;;;;;;;;;;;;;;;;;;10546109;28;20010;-61
2022/07/20 16:47:50;;;;;;;;;;;;;;;;;;10545727;28;19924;-60
2022/07/20 16:52:53;;;;;;;;;;;;;;;;;;10545636;28;19924;-61
2022/07/20 16:57:55;;;;;;;;;;;;;;;;;;10545255;28;19960;-61
2022/07/20 17:02:57;;;;;;;;;;;;;;;;;;10544583;28;20401;-60
2022/07/20 17:07:59;;;;;;;;;;;;;;;;;;10545010;28;19924;-60
2022/07/20 17:13:01;;;;;;;;;;;;;;;;;;10544767;28;19940;-61
2022/07/20 17:18:04;;;;;;;;;;;;;;;;;;10543331;28;19924;-61
2022/07/20 17:23:06;;;;;;;;;;;;;;;;;;10541227;28;19924;-61
2022/07/20 17:28:08;;;;;;;;;;;;;;;;;;10543177;28;20401;-60
2022/07/20 17:33:10;;;;;;;;;;;;;;;;;;10540825;28;19947;-60
2022/07/20 17:38:12;;;;;;;;;;;;;;;;;;10580840;28;19931;-61
2022/07/20 17:43:14;;;;;;;;;;;;;;;;;;10585257;28;19923;-60
2022/07/20 17:48:16;;;;;;;;;;;;;;;;;;10543770;28;20377;-61
2022/07/20 17:53:18;;;;;;;;;;;;;;;;;;10542761;28;19924;-60
2022/07/20 17:58:20;;;;;;;;;;;;;;;;;;10542809;28;20286;-60
2022/07/20 18:03:22;;;;;;;;;;;;;;;;;;10542110;28;19931;-60
2022/07/20 18:08:44;;;;;;;;;;;;;;;;;;10542591;28;19931;-60
2022/07/20 18:13:48;;;;;;;;;;;;;;;;;;10541209;28;20309;-60
2022/07/20 18:18:50;;;;;;;;;;;;;;;;;;10542087;28;19924;-60
2022/07/20 18:23:54;;;;;;;;;;;;;;;;;;10541319;28;19963;-60
2022/07/20 18:28:56;;;;;;;;;;;;;;;;;;10523463;28;19925;-60
2022/07/20 18:33:59;;;;;;;;;;;;;;;;;;10541643;28;19931;-60
2022/07/20 18:39:02;;;;;;;;;;;;;;;;;;10541514;28;19924;-60
2022/07/20 18:44:04;;;;;;;;;;;;;;;;;;10539692;28;19938;-60
2022/07/20 18:49:06;;;;;;;;;;;;;;;;;;10539638;28;19931;-60
2022/07/20 18:54:08;;;;;;;;;;;;;;;;;;10540323;28;19924;-60
2022/07/20 18:59:10;;;;;;;;;;;;;;;;;;10539650;28;19924;-59
2022/07/20 19:04:12;;;;;;;;;;;;;;;;;;10540228;28;19924;-60
2022/07/20 19:09:19;;;;;;;;;;;;;;;;;;10540181;28;19924;-60
2022/07/20 19:14:22;;;;;;;;;;;;;;;;;;10540014;28;19924;-60
2022/07/20 19:19:24;;;;;;;;;;;;;;;;;;10539784;28;20431;-60
2022/07/20 19:24:26;;;;;;;;;;;;;;;;;;10539965;28;19924;-60
2022/07/20 19:29:28;;;;;;;;;;;;;;;;;;10540252;28;19924;-60
2022/07/20 19:34:30;;;;;;;;;;;;;;;;;;10539640;28;19995;-60
2022/07/20 19:39:32;;;;;;;;;;;;;;;;;;10540108;28;19924;-60
2022/07/20 19:44:35;;;;;;;;;;;;;;;;;;10538368;28;19924;-60
2022/07/20 19:49:37;;;;;;;;;;;;;;;;;;10567213;28;19934;-60
2022/07/20 19:54:39;;;;;;;;;;;;;;;;;;10581223;28;20370;-61
2022/07/20 19:59:41;;;;;;;;;;;;;;;;;;10557154;28;20027;-60
2022/07/20 20:04:43;;;;;;;;;;;;;;;;;;10547308;28;19928;-61
2022/07/20 20:09:45;;;;;;;;;;;;;;;;;;10547039;28;19928;-60
2022/07/20 20:14:47;;;;;;;;;;;;;;;;;;10547161;28;20002;-60
2022/07/20 20:19:49;;;;;;;;;;;;;;;;;;10545612;28;19923;-61
2022/07/20 20:24:51;;;;;;;;;;;;;;;;;;10545545;28;19930;-60
2022/07/20 20:29:53;;;;;;;;;;;;;;;;;;10546649;28;19924;-60
2022/07/20 20:34:55;;;;;;;;;;;;;;;;;;10545674;28;19930;-60
2022/07/20 20:39:58;;;;;;;;;;;;;;;;;;10545303;28;19931;-60
2022/07/20 20:45:00;;;;;;;;;;;;;;;;;;10545306;28;19924;-60
2022/07/20 20:50:02;;;;;;;;;;;;;;;;;;10546573;28;19930;-60
2022/07/20 20:55:04;;;;;;;;;;;;;;;;;;10544089;28;19924;-60
2022/07/20 21:00:06;;;;;;;;;;;;;;;;;;10544831;28;19939;-60
2022/07/20 21:05:08;;;;;;;;;;;;;;;;;;10544887;28;19931;-60
2022/07/20 21:10:10;;;;;;;;;;;;;;;;;;10543564;28;20393;-60
2022/07/20 21:15:13;;;;;;;;;;;;;;;;;;10543994;28;19924;-60
2022/07/20 21:20:15;;;;;;;;;;;;;;;;;;10525664;28;20378;-60
2022/07/20 21:25:17;;;;;;;;;;;;;;;;;;10544036;28;19973;-60
2022/07/20 21:30:19;;;;;;;;;;;;;;;;;;10544232;28;19924;-59
2022/07/20 21:35:21;;;;;;;;;;;;;;;;;;10543245;28;19924;-60
2022/07/20 21:40:23;;;;;;;;;;;;;;;;;;10542710;28;19924;-59
2022/07/20 21:45:25;;;;;;;;;;;;;;;;;;10543158;28;19931;-60
2022/07/20 21:50:31;;;;;;;;;;;;;;;;;;10525477;28;19967;-60
2022/07/20 21:55:33;;;;;;;;;;;;;;;;;;10542399;28;20371;-60
2022/07/20 22:00:35;;;;;;;;;;;;;;;;;;10542267;28;19924;-60
2022/07/20 22:05:37;;;;;;;;;;;;;;;;;;10542263;28;19935;-60
2022/07/20 22:10:39;;;;;;;;;;;;;;;;;;10542611;28;19931;-60
2022/07/20 22:15:41;;;;;;;;;;;;;;;;;;10529024;22;19932;-62
2022/07/20 22:20:43;;;;;;;;;;;;;;;;;;10500343;28;19939;-62
2022/07/20 22:25:46;;;;;;;;;;;;;;;;;;10499694;28;19939;-62
2022/07/20 22:30:48;;;;;;;;;;;;;;;;;;10499979;28;19928;-62
2022/07/20 22:35:50;;;;;;;;;;;;;;;;;;10499707;28;19924;-62
2022/07/20 22:40:52;;;;;;;;;;;;;;;;;;10499471;28;19924;-63
2022/07/20 22:45:54;;;;;;;;;;;;;;;;;;10498596;28;20294;-63
2022/07/20 22:50:56;;;;;;;;;;;;;;;;;;10498759;28;20399;-62
2022/07/20 22:55:58;;;;;;;;;;;;;;;;;;10498514;28;20287;-63
2022/07/20 23:01:00;;;;;;;;;;;;;;;;;;10498954;28;19925;-63
2022/07/20 23:06:02;;;;;;;;;;;;;;;;;;10498328;28;19936;-62
2022/07/20 23:11:04;;;;;;;;;;;;;;;;;;10498276;28;19925;-62
2022/07/20 23:16:06;;;;;;;;;;;;;;;;;;10497907;28;19973;-63
2022/07/20 23:21:09;;;;;;;;;;;;;;;;;;10480701;28;19931;-62
2022/07/20 23:26:11;;;;;;;;;;;;;;;;;;10457114;28;19925;-62
2022/07/20 23:31:13;;;;;;;;;;;;;;;;;;10457023;28;19925;-62
2022/07/20 23:36:16;;;;;;;;;;;;;;;;;;10464489;28;19951;-63
2022/07/20 23:41:18;;;;;;;;;;;;;;;;;;10506518;28;19924;-63
2022/07/20 23:46:20;;;;;;;;;;;;;;;;;;10505435;28;19924;-63
2022/07/20 23:51:22;;;;;;;;;;;;;;;;;;10506254;28;19972;-63
2022/07/20 23:56:24;;;;;;;;;;;;;;;;;;10506008;28;19924;-63
